Time;durP1;ratioP1;P1;durP2;ratioP2;P2;SDS_P1;SDS_P2;PMS_P1;PMS_P2;Temp;Humidity;BMP_temperature;BMP_pressure;BME280_temperature;BME280_humidity;BME280_pressure;Samples;Min_cycle;Max_cycle;Signal;HPM_P1;HPM_P2
2021/10/19 00:03:08;;;;;;;4.43;3.22;;;17.40;71.20;;;;;;10498619;28;20493;-45
2021/10/19 00:08:08;;;;;;;4.70;3.10;;;17.40;71.10;;;;;;10497518;28;20388;-45
2021/10/19 00:13:09;;;;;;;4.22;3.47;;;17.40;71.10;;;;;;10491308;28;20116;-45
2021/10/19 00:18:10;;;;;;;4.07;3.05;;;17.40;71.10;;;;;;10493646;28;20372;-44
2021/10/19 00:23:10;;;;;;;3.90;3.20;;;17.40;71.10;;;;;;10497847;28;20064;-46
2021/10/19 00:28:11;;;;;;;4.10;3.13;;;17.40;71.20;;;;;;10498180;28;20024;-45
2021/10/19 00:33:12;;;;;;;4.15;2.92;;;17.40;71.20;;;;;;10485983;28;20056;-47
2021/10/19 00:38:12;;;;;;;4.28;3.47;;;17.40;71.20;;;;;;10496754;28;20028;-46
2021/10/19 00:43:13;;;;;;;3.97;3.03;;;17.40;71.70;;;;;;10495977;28;20139;-46
2021/10/19 00:48:16;;;;;;;4.60;3.17;;;17.40;71.00;;;;;;10498908;28;20025;-46
2021/10/19 00:53:18;;;;;;;5.00;3.90;;;17.40;70.90;;;;;;10506801;28;20036;-46
2021/10/19 00:58:18;;;;;;;4.65;3.35;;;17.50;70.90;;;;;;10496092;28;20067;-45
2021/10/19 01:03:19;;;;;;;4.63;3.10;;;17.40;70.80;;;;;;10496936;28;20056;-48
2021/10/19 01:08:20;;;;;;;4.75;3.28;;;17.50;70.80;;;;;;10497220;28;20110;-45
2021/10/19 01:13:21;;;;;;;3.92;3.38;;;17.40;70.80;;;;;;10486824;28;20033;-45
2021/10/19 01:18:22;;;;;;;3.85;2.90;;;17.40;70.90;;;;;;10493891;28;20029;-45
2021/10/19 01:23:22;;;;;;;4.13;2.72;;;17.40;71.50;;;;;;10494986;28;20123;-45
2021/10/19 01:28:23;;;;;;;3.97;2.65;;;17.40;70.90;;;;;;10496666;28;20525;-45
2021/10/19 01:33:24;;;;;;;3.05;2.50;;;17.40;70.80;;;;;;10496496;28;20061;-45
2021/10/19 01:38:28;;;;;;;5.70;3.53;;;17.40;70.80;;;;;;10496524;28;20066;-45
2021/10/19 01:43:29;;;;;;;3.42;2.30;;;17.40;70.80;;;;;;10495938;28;20508;-44
2021/10/19 01:48:32;;;;;;;3.28;2.42;;;17.40;70.80;;;;;;10500039;28;20024;-45
2021/10/19 01:53:33;;;;;;;4.32;2.97;;;17.40;70.70;;;;;;10503397;28;20033;-45
2021/10/19 01:58:33;;;;;;;3.33;2.50;;;17.40;70.70;;;;;;10496142;28;20115;-45
2021/10/19 02:03:34;;;;;;;3.88;2.72;;;17.40;70.70;;;;;;10494165;28;20121;-46
2021/10/19 02:08:35;;;;;;;5.80;3.13;;;17.40;70.80;;;;;;10494678;28;20100;-45
2021/10/19 02:13:36;;;;;;;3.45;2.40;;;17.40;70.70;;;;;;10495604;28;20494;-46
2021/10/19 02:18:36;;;;;;;4.35;2.92;;;17.40;70.70;;;;;;10498490;28;20028;-48
2021/10/19 02:23:37;;;;;;;3.85;2.78;;;17.40;70.70;;;;;;10503061;28;20032;-45
2021/10/19 02:28:38;;;;;;;5.07;3.03;;;17.40;70.70;;;;;;10502845;28;20082;-44
2021/10/19 02:33:38;;;;;;;3.95;3.10;;;17.50;70.70;;;;;;10502545;28;20043;-45
2021/10/19 02:38:39;;;;;;;5.15;2.92;;;17.40;70.70;;;;;;10502544;28;20109;-45
2021/10/19 02:43:40;;;;;;;4.82;3.08;;;17.50;70.70;;;;;;10500640;28;20056;-46
2021/10/19 02:48:40;;;;;;;4.15;3.03;;;17.40;70.70;;;;;;10507598;28;20527;-45
2021/10/19 02:53:41;;;;;;;3.65;2.70;;;17.40;70.70;;;;;;10507637;28;20056;-45
2021/10/19 02:58:42;;;;;;;3.85;2.72;;;17.40;70.60;;;;;;10501600;28;20111;-46
2021/10/19 03:03:42;;;;;;;2.95;2.22;;;17.40;70.60;;;;;;10500148;28;20473;-45
2021/10/19 03:08:43;;;;;;;3.55;2.50;;;17.50;70.60;;;;;;10501213;28;20032;-45
2021/10/19 03:13:44;;;;;;;3.70;2.65;;;17.50;70.70;;;;;;10499536;28;20048;-47
2021/10/19 03:18:45;;;;;;;3.20;2.50;;;17.40;71.60;;;;;;10501138;28;20081;-45
2021/10/19 03:23:46;;;;;;;3.38;2.58;;;17.50;70.60;;;;;;10504040;28;20599;-46
2021/10/19 03:28:47;;;;;;;3.83;2.83;;;17.50;70.50;;;;;;10499581;28;20029;-45
2021/10/19 03:33:47;;;;;;;3.38;2.55;;;17.50;70.50;;;;;;10499984;28;20032;-44
2021/10/19 03:38:48;;;;;;;4.05;2.90;;;17.50;70.50;;;;;;10499594;28;20071;-45
2021/10/19 03:43:49;;;;;;;3.97;3.00;;;17.40;70.50;;;;;;10499735;28;20024;-45
2021/10/19 03:48:49;;;;;;;3.67;2.83;;;17.40;70.50;;;;;;10506329;28;20024;-46
2021/10/19 03:53:50;;;;;;;2.92;2.20;;;17.40;70.50;;;;;;10504136;28;20029;-45
2021/10/19 03:58:51;;;;;;;4.57;3.45;;;17.40;70.50;;;;;;10498224;28;20060;-45
2021/10/19 04:03:51;;;;;;;3.53;2.40;;;17.40;70.50;;;;;;10498616;28;20453;-45
2021/10/19 04:08:52;;;;;;;3.28;2.55;;;17.40;70.50;;;;;;10498813;28;20107;-45
2021/10/19 04:13:53;;;;;;;3.90;2.90;;;17.40;70.50;;;;;;10486257;28;20032;-45
2021/10/19 04:18:54;;;;;;;3.35;2.67;;;17.40;70.50;;;;;;10497365;28;20028;-45
2021/10/19 04:23:54;;;;;;;3.80;2.50;;;17.40;70.50;;;;;;10497234;28;20107;-46
2021/10/19 04:28:55;;;;;;;3.00;2.20;;;17.50;70.50;;;;;;10495866;28;20035;-45
2021/10/19 04:33:59;;;;;;;3.38;2.25;;;17.50;70.40;;;;;;10497034;28;20031;-45
2021/10/19 04:39:00;;;;;;;4.32;3.22;;;17.50;70.40;;;;;;10497435;28;20193;-46
2021/10/19 04:44:00;;;;;;;3.67;2.58;;;17.50;70.30;;;;;;10497499;28;20433;-45
2021/10/19 04:49:01;;;;;;;2.92;2.30;;;17.60;70.10;;;;;;10501584;28;20047;-46
2021/10/19 04:54:02;;;;;;;4.32;3.30;;;17.80;69.80;;;;;;10494944;28;20037;-46
2021/10/19 04:59:02;;;;;;;5.38;2.85;;;18.00;70.00;;;;;;10507908;28;20434;-45
2021/10/19 05:04:03;;;;;;;6.80;3.25;;;18.30;70.10;;;;;;10509172;28;20555;-45
2021/10/19 05:09:04;;;;;;;9.80;2.80;;;18.50;69.60;;;;;;10500232;28;20389;-45
2021/10/19 05:14:05;;;;;;;7.03;2.85;;;18.60;69.60;;;;;;10509423;28;20484;-45
2021/10/19 05:19:05;;;;;;;6.53;3.20;;;18.70;69.80;;;;;;10519919;28;20059;-45
2021/10/19 05:24:06;;;;;;;8.32;2.72;;;18.70;70.10;;;;;;10503338;28;20059;-45
2021/10/19 05:29:07;;;;;;;8.00;4.05;;;18.70;69.80;;;;;;10502483;28;20036;-44
2021/10/19 05:34:07;;;;;;;9.73;3.38;;;18.70;70.10;;;;;;10501002;28;20447;-44
2021/10/19 05:39:08;;;;;;;11.70;3.58;;;18.50;70.30;;;;;;10520088;28;20036;-45
2021/10/19 05:44:09;;;;;;;11.15;3.88;;;18.50;70.80;;;;;;10502508;28;20385;-45
2021/10/19 05:49:10;;;;;;;11.60;3.80;;;18.50;71.10;;;;;;10511798;28;20110;-47
2021/10/19 05:54:13;;;;;;;18.40;3.78;;;18.50;71.10;;;;;;10516489;28;20142;-45
2021/10/19 05:59:14;;;;;;;8.13;3.80;;;18.40;71.00;;;;;;10510824;28;20048;-45
2021/10/19 06:04:15;;;;;;;13.75;3.97;;;18.30;71.10;;;;;;10508152;28;20137;-46
2021/10/19 06:09:15;;;;;;;12.98;4.35;;;18.30;71.20;;;;;;10502173;28;20029;-45
2021/10/19 06:14:17;;;;;;;9.48;3.88;;;18.20;71.20;;;;;;10502465;28;20107;-45
2021/10/19 06:19:17;;;;;;;12.98;3.92;;;18.20;71.00;;;;;;10499447;28;20036;-47
2021/10/19 06:24:18;;;;;;;8.10;4.13;;;18.20;70.90;;;;;;10510117;28;20354;-47
2021/10/19 06:29:19;;;;;;;12.02;3.92;;;18.20;71.00;;;;;;10498514;28;20113;-46
2021/10/19 06:34:20;;;;;;;10.73;3.42;;;18.20;71.00;;;;;;10501108;28;20119;-45
2021/10/19 06:39:20;;;;;;;8.15;3.22;;;18.20;71.00;;;;;;10493719;28;20080;-48
2021/10/19 06:44:21;;;;;;;9.52;3.38;;;18.20;71.10;;;;;;10495577;28;20046;-47
2021/10/19 06:49:22;;;;;;;5.65;3.33;;;18.20;71.80;;;;;;10513105;28;20082;-46
2021/10/19 06:54:22;;;;;;;10.82;3.42;;;18.20;71.90;;;;;;10515545;28;20034;-47
2021/10/19 06:59:23;;;;;;;7.20;3.13;;;18.20;72.00;;;;;;10518363;28;20043;-46
2021/10/19 07:04:24;;;;;;;8.70;3.75;;;18.20;72.00;;;;;;10507615;28;20123;-48
2021/10/19 07:09:24;;;;;;;11.50;3.78;;;18.10;72.10;;;;;;10499019;28;20072;-46
2021/10/19 07:14:25;;;;;;;8.75;2.83;;;18.10;72.20;;;;;;10519570;28;20075;-51
2021/10/19 07:19:26;;;;;;;6.57;2.67;;;18.10;72.10;;;;;;10503959;28;20078;-47
2021/10/19 07:24:26;;;;;;;7.13;2.85;;;18.10;72.20;;;;;;10502277;28;20453;-46
2021/10/19 07:29:27;;;;;;;7.65;3.38;;;18.10;72.10;;;;;;10500176;28;20115;-46
2021/10/19 07:34:28;;;;;;;8.07;3.40;;;18.20;71.70;;;;;;10513212;28;20071;-46
2021/10/19 07:39:28;;;;;;;7.45;3.13;;;18.20;71.80;;;;;;10507308;28;20143;-46
2021/10/19 07:44:29;;;;;;;7.25;3.40;;;18.20;71.80;;;;;;10521112;28;20094;-46
2021/10/19 07:49:30;;;;;;;8.23;2.85;;;18.20;72.00;;;;;;10505441;28;20532;-48
2021/10/19 07:54:31;;;;;;;6.15;3.08;;;18.20;71.90;;;;;;10525477;28;20546;-50
2021/10/19 07:59:31;;;;;;;4.35;3.00;;;18.20;71.90;;;;;;10503813;28;20051;-46
2021/10/19 08:04:33;;;;;;;6.13;3.33;;;18.20;72.00;;;;;;10513902;28;20104;-47
2021/10/19 08:09:33;;;;;;;4.55;2.38;;;18.20;72.10;;;;;;10501513;28;20445;-47
2021/10/19 08:14:34;;;;;;;5.80;3.05;;;18.20;72.10;;;;;;10496761;28;20028;-47
2021/10/19 08:19:35;;;;;;;4.82;2.92;;;18.10;72.10;;;;;;10502410;28;20111;-46
2021/10/19 08:24:35;;;;;;;5.75;3.08;;;18.10;72.20;;;;;;10512956;28;20068;-49
2021/10/19 08:29:36;;;;;;;5.78;3.28;;;18.10;72.30;;;;;;10515805;28;20111;-46
2021/10/19 08:34:37;;;;;;;5.50;2.78;;;18.10;72.40;;;;;;10495879;28;20122;-46
2021/10/19 08:39:37;;;;;;;4.65;2.75;;;18.10;72.30;;;;;;10499473;28;20471;-46
2021/10/19 08:44:38;;;;;;;7.53;2.72;;;18.10;72.10;;;;;;10498859;28;20035;-46
2021/10/19 08:49:39;;;;;;;4.45;2.60;;;18.10;71.90;;;;;;10505906;28;20032;-45
2021/10/19 08:54:41;;;;;;;7.82;3.05;;;18.10;71.80;;;;;;10496261;28;20039;-46
2021/10/19 08:59:47;;;;;;;5.93;2.35;;;18.00;71.80;;;;;;10494696;28;20473;-48
2021/10/19 09:04:54;;;;;;;3.63;2.50;;;18.00;71.90;;;;;;10491653;28;20057;-46
2021/10/19 09:09:55;;;;;;;5.53;2.70;;;18.00;71.80;;;;;;10492786;28;20055;-47
2021/10/19 09:15:05;;;;;;;5.72;2.67;;;18.10;71.80;;;;;;10495132;28;20519;-46
2021/10/19 09:20:16;;;;;;;5.72;2.60;;;18.10;71.80;;;;;;10495522;28;20484;-44
2021/10/19 09:25:32;;;;;;;4.10;2.47;;;18.10;71.60;;;;;;10495665;28;20098;-45
2021/10/19 09:30:37;;;;;;;4.57;2.67;;;18.20;71.40;;;;;;10502811;28;20468;-46
2021/10/19 09:35:38;;;;;;;3.47;2.40;;;18.30;70.90;;;;;;10504588;28;20032;-45
2021/10/19 09:40:52;;;;;;;6.95;3.00;;;18.40;70.70;;;;;;10503706;28;20538;-47
2021/10/19 09:45:55;;;;;;;3.45;2.20;;;18.30;70.70;;;;;;10504189;28;20064;-45
2021/10/19 09:50:57;;;;;;;6.10;2.67;;;18.30;70.80;;;;;;10515457;28;20020;-46
2021/10/19 09:55:58;;;;;;;4.57;2.75;;;18.30;71.00;;;;;;10503405;28;20385;-46
2021/10/19 10:01:00;;;;;;;3.90;2.00;;;18.20;71.00;;;;;;10502546;28;20038;-50
2021/10/19 10:06:00;;;;;;;4.10;2.83;;;18.20;71.20;;;;;;10502863;28;20431;-46
2021/10/19 10:11:01;;;;;;;3.92;2.63;;;18.20;75.10;;;;;;10502939;28;20086;-45
2021/10/19 10:16:10;;;;;;;3.72;2.60;;;18.20;75.70;;;;;;10500885;28;20028;-46
2021/10/19 10:21:23;;;;;;;3.83;2.60;;;18.30;74.90;;;;;;10500329;28;20032;-45
2021/10/19 10:26:27;;;;;;;4.80;2.60;;;18.20;74.90;;;;;;10501289;28;20037;-45
2021/10/19 10:31:28;;;;;;;5.38;2.60;;;18.20;74.50;;;;;;10501984;28;20086;-45
2021/10/19 10:36:42;;;;;;;4.55;2.65;;;18.20;74.50;;;;;;10501773;28;20066;-45
2021/10/19 10:41:46;;;;;;;4.50;2.60;;;18.20;74.80;;;;;;10501922;28;20056;-45
2021/10/19 10:46:46;;;;;;;2.70;1.92;;;18.10;74.50;;;;;;10499327;28;20032;-46
2021/10/19 10:51:48;;;;;;;3.58;2.25;;;18.10;74.40;;;;;;10511172;28;20037;-44
2021/10/19 10:56:52;;;;;;;3.08;2.35;;;18.10;74.40;;;;;;10500461;28;20491;-45
2021/10/19 11:02:07;;;;;;;3.33;1.90;;;18.10;74.40;;;;;;10500876;28;20071;-49
2021/10/19 11:07:09;;;;;;;3.53;2.25;;;18.00;74.50;;;;;;10499348;28;20024;-45
2021/10/19 11:12:11;;;;;;;3.97;2.30;;;18.00;74.40;;;;;;10493234;28;20058;-45
2021/10/19 11:17:11;;;;;;;2.88;1.88;;;18.00;74.60;;;;;;10497286;28;20024;-46
2021/10/19 11:22:12;;;;;;;3.17;2.17;;;18.10;74.60;;;;;;10498339;28;20107;-48
2021/10/19 11:27:14;;;;;;;3.88;2.03;;;18.20;73.90;;;;;;10495541;28;20119;-45
2021/10/19 11:32:15;;;;;;;4.63;2.40;;;18.20;73.60;;;;;;10497773;28;20081;-45
2021/10/19 11:37:16;;;;;;;3.40;1.80;;;18.20;73.60;;;;;;10498055;28;20035;-45
2021/10/19 11:42:16;;;;;;;4.20;2.33;;;18.10;73.70;;;;;;10496248;28;20532;-45
2021/10/19 11:47:17;;;;;;;3.33;2.00;;;18.10;73.80;;;;;;10496780;28;20035;-46
2021/10/19 11:52:18;;;;;;;3.05;1.98;;;18.10;73.80;;;;;;10500689;28;20028;-45
2021/10/19 11:57:23;;;;;;;4.75;2.60;;;18.00;73.80;;;;;;10496375;28;20044;-45
2021/10/19 12:02:24;;;;;;;3.30;2.30;;;18.00;73.90;;;;;;10496602;28;20436;-46
2021/10/19 12:07:29;;;;;;;4.00;2.13;;;18.00;74.00;;;;;;10495462;28;20021;-45
2021/10/19 12:12:29;;;;;;;3.15;2.13;;;18.00;74.10;;;;;;10483445;28;20425;-45
2021/10/19 12:17:30;;;;;;;4.97;2.30;;;18.00;75.10;;;;;;10496379;28;20115;-45
2021/10/19 12:22:34;;;;;;;3.85;2.33;;;18.00;75.10;;;;;;10497643;28;20029;-45
2021/10/19 12:27:39;;;;;;;6.45;2.88;;;18.10;74.80;;;;;;10496355;28;20032;-45
2021/10/19 12:32:40;;;;;;;5.93;2.35;;;18.20;74.80;;;;;;10497373;28;20396;-45
2021/10/19 12:37:42;;;;;;;7.82;2.88;;;18.30;74.60;;;;;;10496768;28;20036;-52
2021/10/19 12:42:43;;;;;;;4.03;2.30;;;18.30;74.50;;;;;;10497263;28;20098;-44
2021/10/19 12:47:43;;;;;;;7.72;3.00;;;18.30;74.70;;;;;;10497406;28;20417;-46
2021/10/19 12:52:44;;;;;;;6.22;3.45;;;18.30;74.80;;;;;;10508591;28;20473;-45
2021/10/19 12:57:45;;;;;;;5.00;2.42;;;18.20;75.80;;;;;;10497147;28;20029;-45
2021/10/19 13:02:46;;;;;;;5.68;2.55;;;18.20;74.70;;;;;;10495127;28;20109;-46
2021/10/19 13:07:47;;;;;;;4.38;2.38;;;18.10;74.80;;;;;;10495289;28;20487;-45
2021/10/19 13:12:47;;;;;;;3.17;2.15;;;18.10;74.90;;;;;;10495598;28;20064;-44
2021/10/19 13:17:48;;;;;;;4.05;2.30;;;18.10;75.00;;;;;;10496469;28;20028;-45
2021/10/19 13:22:49;;;;;;;4.50;2.45;;;18.00;74.90;;;;;;10496492;28;20426;-47
2021/10/19 13:27:52;;;;;;;5.57;2.85;;;18.00;75.00;;;;;;10496216;28;20028;-50
2021/10/19 13:32:53;;;;;;;4.60;2.58;;;18.00;75.00;;;;;;10496176;28;20097;-46
2021/10/19 13:37:54;;;;;;;6.47;3.20;;;18.00;75.10;;;;;;10494969;28;20029;-49
2021/10/19 13:42:54;;;;;;;3.85;2.45;;;18.00;74.90;;;;;;10496265;28;20040;-47
2021/10/19 13:47:55;;;;;;;6.10;3.20;;;18.00;74.70;;;;;;10495638;28;20075;-46
2021/10/19 13:52:56;;;;;;;4.85;2.33;;;18.10;74.60;;;;;;10497045;28;20024;-45
2021/10/19 13:57:57;;;;;;;3.60;2.42;;;18.10;74.50;;;;;;10495103;28;20075;-46
2021/10/19 14:02:58;;;;;;;4.72;2.70;;;18.20;74.50;;;;;;10493240;28;20033;-54
2021/10/19 14:07:59;;;;;;;9.38;3.08;;;18.30;74.40;;;;;;10495491;28;20465;-46
2021/10/19 14:13:00;;;;;;;4.80;3.42;;;18.30;74.00;;;;;;10495330;28;20070;-51
2021/10/19 14:18:01;;;;;;;4.43;2.67;;;18.40;74.00;;;;;;10502567;28;20099;-46
2021/10/19 14:23:01;;;;;;;10.60;4.90;;;18.40;73.90;;;;;;10502936;28;20034;-47
2021/10/19 14:28:04;;;;;;;6.50;3.40;;;18.40;75.20;;;;;;10503238;28;20103;-48
2021/10/19 14:33:05;;;;;;;19.55;10.25;;;18.40;75.20;;;;;;10502176;28;20064;-50
2021/10/19 14:38:05;;;;;;;30.17;13.48;;;18.50;79.30;;;;;;10501408;28;20052;-49
2021/10/19 14:43:06;;;;;;;34.53;15.98;;;18.50;80.20;;;;;;10500884;28;20098;-49
2021/10/19 14:48:07;;;;;;;12.40;6.78;;;18.60;83.20;;;;;;10501154;28;20051;-46
2021/10/19 14:53:07;;;;;;;14.90;6.07;;;18.60;80.50;;;;;;10500418;28;20117;-46
2021/10/19 14:58:08;;;;;;;9.07;5.82;;;18.60;78.70;;;;;;10500877;28;20031;-46
2021/10/19 15:03:09;;;;;;;10.50;5.30;;;18.50;78.20;;;;;;10500154;28;20094;-50
2021/10/19 15:08:09;;;;;;;6.38;4.10;;;18.50;78.20;;;;;;10501172;28;20039;-52
2021/10/19 15:13:10;;;;;;;7.32;5.35;;;18.40;77.60;;;;;;10493647;28;20489;-46
2021/10/19 15:18:11;;;;;;;8.02;4.20;;;18.30;77.50;;;;;;10495462;28;20040;-47
2021/10/19 15:23:15;;;;;;;8.35;4.60;;;18.30;77.50;;;;;;10500682;28;20100;-48
2021/10/19 15:28:15;;;;;;;5.97;4.70;;;18.30;77.40;;;;;;10500601;28;20033;-47
2021/10/19 15:33:16;;;;;;;6.50;4.68;;;18.20;77.30;;;;;;10500222;28;20103;-51
2021/10/19 15:38:17;;;;;;;7.55;4.50;;;18.20;77.20;;;;;;10498719;28;20441;-47
2021/10/19 15:43:17;;;;;;;6.60;4.28;;;18.20;77.10;;;;;;10499861;28;20120;-46
2021/10/19 15:48:18;;;;;;;7.00;4.35;;;18.20;77.10;;;;;;10500164;28;20056;-46
2021/10/19 15:53:19;;;;;;;6.80;4.63;;;18.10;77.00;;;;;;10508269;28;20037;-45
2021/10/19 15:58:20;;;;;;;6.05;4.20;;;18.10;76.90;;;;;;10499245;28;20041;-48
2021/10/19 16:03:21;;;;;;;6.30;4.85;;;18.10;76.90;;;;;;10496753;28;20085;-48
2021/10/19 16:08:22;;;;;;;12.27;7.95;;;18.20;77.50;;;;;;10496108;28;20028;-46
2021/10/19 16:13:23;;;;;;;12.98;9.45;;;18.30;77.40;;;;;;10489371;28;20055;-50
2021/10/19 16:18:24;;;;;;;16.42;11.80;;;18.50;77.70;;;;;;10495542;28;20385;-47
2021/10/19 16:23:25;;;;;;;14.15;10.57;;;18.50;78.80;;;;;;10498369;28;20031;-49
2021/10/19 16:28:25;;;;;;;19.60;11.35;;;18.60;79.10;;;;;;10496386;28;20028;-50
2021/10/19 16:33:26;;;;;;;17.45;11.95;;;18.60;80.10;;;;;;10496672;28;20020;-51
2021/10/19 16:38:27;;;;;;;19.90;10.63;;;18.50;81.30;;;;;;10495706;28;20080;-50
2021/10/19 16:43:27;;;;;;;14.18;10.43;;;18.40;80.00;;;;;;10496880;28;20075;-49
2021/10/19 16:48:32;;;;;;;13.70;10.55;;;18.40;79.50;;;;;;10496894;28;20045;-47
2021/10/19 16:53:33;;;;;;;24.38;9.77;;;18.50;79.30;;;;;;10497225;28;20120;-50
2021/10/19 16:58:34;;;;;;;15.57;8.30;;;18.50;78.90;;;;;;10496615;28;20464;-48
2021/10/19 17:03:35;;;;;;;13.90;8.35;;;18.50;79.20;;;;;;10496198;28;20123;-48
2021/10/19 17:08:36;;;;;;;14.70;8.40;;;18.50;78.70;;;;;;10494802;28;20392;-46
2021/10/19 17:13:37;;;;;;;19.55;8.00;;;18.50;78.30;;;;;;10494877;28;20021;-52
2021/10/19 17:18:40;;;;;;;15.02;8.95;;;18.50;78.30;;;;;;10495156;28;20029;-54
2021/10/19 17:23:40;;;;;;;11.88;8.10;;;18.40;78.90;;;;;;10495097;28;20036;-50
2021/10/19 17:28:41;;;;;;;13.63;7.70;;;18.40;78.50;;;;;;10496031;28;20035;-51
2021/10/19 17:33:42;;;;;;;13.18;8.15;;;18.40;78.40;;;;;;10494150;28;20024;-49
2021/10/19 17:38:42;;;;;;;11.35;6.38;;;18.40;77.90;;;;;;10495047;28;20358;-47
2021/10/19 17:43:43;;;;;;;10.10;7.38;;;18.30;77.80;;;;;;10494404;28;20117;-45
2021/10/19 17:48:44;;;;;;;10.80;7.03;;;18.30;77.80;;;;;;10497190;28;20029;-46
2021/10/19 17:53:45;;;;;;;12.07;7.53;;;18.30;77.80;;;;;;10502137;28;20082;-48
2021/10/19 17:58:45;;;;;;;14.35;7.68;;;18.30;78.40;;;;;;10501953;28;20039;-46
2021/10/19 18:03:46;;;;;;;8.75;6.72;;;18.30;77.70;;;;;;10502192;28;20047;-51
2021/10/19 18:08:47;;;;;;;9.65;6.63;;;18.30;77.70;;;;;;10501000;28;20057;-51
2021/10/19 18:13:48;;;;;;;10.50;6.75;;;18.20;77.80;;;;;;10493108;28;20391;-49
2021/10/19 18:18:52;;;;;;;9.80;6.40;;;18.20;77.80;;;;;;10502062;28;20032;-52
2021/10/19 18:23:54;;;;;;;12.50;6.53;;;;;;;;;;10501865;28;20032;-46
2021/10/19 18:28:55;;;;;;;11.02;7.00;;;;;;;;;;10502530;28;20036;-46
2021/10/19 18:33:56;;;;;;;10.52;6.97;;;;;;;;;;10501583;28;20033;-48
2021/10/19 18:38:57;;;;;;;12.68;7.57;;;;;;;;;;10502549;28;20041;-48
2021/10/19 18:43:58;;;;;;;13.68;6.95;;;18.10;77.30;;;;;;10502245;28;20089;-46
2021/10/19 18:49:00;;;;;;;7.55;5.03;;;18.20;78.00;;;;;;10510448;28;20032;-50
2021/10/19 18:54:01;;;;;;;9.48;6.70;;;18.20;77.80;;;;;;10502257;28;20024;-48
2021/10/19 18:59:04;;;;;;;12.55;6.70;;;18.30;77.70;;;;;;10497060;28;20036;-47
2021/10/19 19:04:04;;;;;;;9.98;6.50;;;18.20;77.80;;;;;;10501923;28;20021;-46
2021/10/19 19:09:06;;;;;;;8.88;5.82;;;18.30;77.80;;;;;;10498536;28;20457;-47
2021/10/19 19:14:09;;;;;;;9.05;6.28;;;18.30;77.70;;;;;;10498575;28;20040;-48
2021/10/19 19:19:10;;;;;;;9.13;6.75;;;18.30;77.70;;;;;;10493737;28;20334;-52
2021/10/19 19:24:12;;;;;;;10.45;5.80;;;18.20;77.50;;;;;;10489318;28;20495;-48
2021/10/19 19:29:13;;;;;;;10.55;6.63;;;18.10;77.60;;;;;;10513432;28;20031;-48
2021/10/19 19:34:14;;;;;;;10.25;5.95;;;18.10;77.70;;;;;;10497685;28;20393;-47
2021/10/19 19:39:14;;;;;;;9.30;6.07;;;18.10;77.70;;;;;;10494996;28;20056;-49
2021/10/19 19:44:15;;;;;;;8.35;5.93;;;18.10;77.70;;;;;;10492024;28;20052;-46
2021/10/19 19:49:16;;;;;;;7.72;5.45;;;18.00;77.60;;;;;;10506027;28;20032;-46
2021/10/19 19:54:17;;;;;;;8.73;5.40;;;18.00;77.60;;;;;;10498532;28;20051;-45
2021/10/19 19:59:17;;;;;;;6.50;4.88;;;18.00;77.50;;;;;;10497468;28;20048;-46
2021/10/19 20:04:19;;;;;;;9.50;6.20;;;18.00;77.60;;;;;;10496647;28;20029;-48
2021/10/19 20:09:19;;;;;;;6.70;5.10;;;18.00;77.50;;;;;;10496248;28;20465;-46
2021/10/19 20:14:20;;;;;;;9.82;5.45;;;18.00;77.50;;;;;;10496214;28;20111;-47
2021/10/19 20:19:21;;;;;;;7.38;4.72;;;18.00;77.40;;;;;;10498498;28;20035;-45
2021/10/19 20:24:22;;;;;;;9.32;4.82;;;18.00;77.40;;;;;;10498198;28;20030;-46
2021/10/19 20:29:23;;;;;;;8.32;4.72;;;18.00;77.30;;;;;;10498484;28;20222;-46
2021/10/19 20:34:24;;;;;;;7.38;5.13;;;18.00;77.30;;;;;;10497052;28;20056;-46
2021/10/19 20:39:25;;;;;;;6.65;5.28;;;18.00;77.40;;;;;;10497420;28;20075;-48
2021/10/19 20:44:26;;;;;;;8.52;5.60;;;17.90;77.30;;;;;;10497601;28;20494;-45
2021/10/19 20:49:26;;;;;;;7.22;5.25;;;17.90;77.30;;;;;;10509375;28;20108;-46
2021/10/19 20:54:27;;;;;;;7.18;4.90;;;17.90;77.20;;;;;;10497554;28;20111;-46
2021/10/19 20:59:30;;;;;;;7.40;5.63;;;17.90;77.20;;;;;;10497243;28;20044;-48
2021/10/19 21:04:32;;;;;;;6.68;4.55;;;17.90;77.10;;;;;;10497207;28;20025;-46
2021/10/19 21:09:33;;;;;;;6.72;4.90;;;17.90;77.10;;;;;;10497200;28;20032;-45
2021/10/19 21:14:35;;;;;;;7.75;4.90;;;17.90;77.10;;;;;;10496789;28;20500;-45
2021/10/19 21:19:36;;;;;;;6.40;4.80;;;17.90;77.00;;;;;;10496638;28;20033;-45
2021/10/19 21:24:37;;;;;;;5.53;4.13;;;17.90;77.10;;;;;;10496876;28;20033;-45
2021/10/19 21:29:38;;;;;;;7.28;4.80;;;17.90;77.10;;;;;;10496644;28;20089;-45
2021/10/19 21:34:39;;;;;;;6.03;4.95;;;17.90;77.00;;;;;;10495183;28;20089;-47
2021/10/19 21:39:40;;;;;;;6.85;4.70;;;17.90;77.00;;;;;;10494798;28;20036;-46
2021/10/19 21:44:41;;;;;;;5.97;4.78;;;17.90;76.90;;;;;;10496354;28;20119;-45
2021/10/19 21:49:41;;;;;;;5.47;4.55;;;17.90;76.90;;;;;;10500932;28;20039;-45
2021/10/19 21:54:42;;;;;;;6.43;4.38;;;17.90;76.90;;;;;;10496366;28;20107;-46
2021/10/19 21:59:43;;;;;;;6.07;4.60;;;17.80;77.20;;;;;;10496180;28;20036;-47
2021/10/19 22:04:43;;;;;;;5.78;4.78;;;17.80;77.20;;;;;;10494709;28;20231;-46
2021/10/19 22:09:45;;;;;;;6.65;5.25;;;17.80;77.00;;;;;;10495687;28;20040;-46
2021/10/19 22:14:46;;;;;;;8.52;5.20;;;17.80;76.90;;;;;;10495738;28;20554;-46
2021/10/19 22:19:47;;;;;;;5.97;4.28;;;17.80;76.80;;;;;;10495658;28;20113;-46
2021/10/19 22:29:54;;;;;;;6.25;4.55;;;17.80;76.90;;;;;;10495600;28;20095;-46
2021/10/19 22:34:54;;;;;;;5.97;4.38;;;17.80;77.00;;;;;;10497769;28;20067;-46
2021/10/19 22:39:55;;;;;;;7.18;4.90;;;17.80;77.10;;;;;;10502410;28;20072;-46
2021/10/19 22:44:56;;;;;;;6.30;4.82;;;17.80;77.20;;;;;;10501075;28;20086;-46
2021/10/19 22:49:57;;;;;;;6.05;4.82;;;17.80;76.90;;;;;;10513571;28;20044;-45
2021/10/19 22:54:57;;;;;;;5.45;4.38;;;17.80;76.80;;;;;;10502001;28;20028;-46
2021/10/19 22:59:58;;;;;;;6.07;4.45;;;17.80;76.70;;;;;;10501886;28;20399;-45
2021/10/19 23:05:00;;;;;;;6.45;4.97;;;17.80;77.10;;;;;;10500182;28;20116;-46
2021/10/19 23:10:03;;;;;;;5.05;4.18;;;17.80;77.10;;;;;;10501150;28;20056;-48
2021/10/19 23:15:06;;;;;;;5.30;3.90;;;17.80;77.20;;;;;;10488556;28;20028;-45
2021/10/19 23:20:08;;;;;;;6.20;4.78;;;17.70;77.30;;;;;;10499959;28;20021;-45
2021/10/19 23:25:11;;;;;;;4.90;3.78;;;17.80;76.90;;;;;;10500800;28;20037;-47
2021/10/19 23:30:12;;;;;;;6.03;4.38;;;17.80;77.00;;;;;;10499573;28;20050;-47
2021/10/19 23:35:12;;;;;;;5.75;5.10;;;17.70;77.00;;;;;;10500255;28;20021;-45
2021/10/19 23:40:13;;;;;;;5.28;3.97;;;17.80;77.00;;;;;;10500257;28;20129;-45
2021/10/19 23:45:14;;;;;;;4.47;3.70;;;17.70;76.90;;;;;;10499020;28;20029;-45
2021/10/19 23:50:18;;;;;;;6.20;4.43;;;17.70;76.90;;;;;;10511252;28;20029;-46
2021/10/19 23:55:19;;;;;;;5.15;3.95;;;17.70;76.90;;;;;;10499640;28;20086;-46
